Time;durP1;ratioP1;P1;durP2;ratioP2;P2;SDS_P1;SDS_P2;PMS_P1;PMS_P2;Temp;Humidity;BMP_temperature;BMP_pressure;BME280_temperature;BME280_humidity;BME280_pressure;Samples;Min_cycle;Max_cycle;Signal;HPM_P1;HPM_P2
2022/05/12 00:01:49;;;;;;;5.18;3.47;;;16.40;99.90;;;;;;5034597;28;20168;-79
2022/05/12 00:04:15;;;;;;;11.68;3.38;;;16.40;99.90;;;;;;5017017;28;20278;-78
2022/05/12 00:06:40;;;;;;;9.93;4.25;;;16.40;99.90;;;;;;5034280;28;20184;-78
2022/05/12 00:09:06;;;;;;;6.95;3.92;;;16.40;99.90;;;;;;5034591;28;20218;-78
2022/05/12 00:11:31;;;;;;;8.88;4.35;;;16.20;99.90;;;;;;5034289;28;20175;-78
2022/05/12 00:13:57;;;;;;;14.32;5.35;;;16.20;99.90;;;;;;5034304;28;20516;-78
2022/05/12 00:16:23;;;;;;;6.75;4.40;;;16.20;99.90;;;;;;5034229;28;20207;-79
2022/05/12 00:18:48;;;;;;;12.68;5.13;;;16.10;99.90;;;;;;5033472;28;20179;-78
2022/05/12 00:21:14;;;;;;;5.40;3.63;;;16.10;99.90;;;;;;5034617;28;20241;-78
2022/05/12 00:23:40;;;;;;;8.05;4.22;;;16.10;99.90;;;;;;5034122;28;20191;-78
2022/05/12 00:26:06;;;;;;;9.07;4.10;;;16.00;99.90;;;;;;5034614;28;20194;-80
2022/05/12 00:28:32;;;;;;;10.70;4.50;;;16.00;99.90;;;;;;5034819;28;20306;-80
2022/05/12 00:30:58;;;;;;;13.18;4.43;;;16.00;99.90;;;;;;5034602;28;20179;-81
2022/05/12 00:33:27;;;;;;;8.00;4.68;;;16.10;99.90;;;;;;5034308;28;20160;-79
2022/05/12 00:35:53;;;;;;;8.85;4.68;;;16.00;99.90;;;;;;5034636;28;20220;-79
2022/05/12 00:38:19;;;;;;;11.65;5.63;;;16.00;99.90;;;;;;5033847;28;20226;-80
2022/05/12 00:40:47;;;;;;;10.05;4.72;;;15.90;99.90;;;;;;5034166;28;20632;-78
2022/05/12 00:43:46;;;;;;;6.60;4.75;;;15.80;99.90;;;;;;5034476;28;20199;-80
2022/05/12 00:46:27;;;;;;;11.60;5.18;;;15.80;99.90;;;;;;5034167;28;20196;-84
2022/05/12 00:48:55;;;;;;;10.10;5.40;;;15.80;99.90;;;;;;5034013;28;20190;-79
2022/05/12 00:51:28;;;;;;;13.93;6.20;;;15.70;99.90;;;;;;5034223;28;20202;-81
2022/05/12 00:53:57;;;;;;;15.15;5.90;;;15.60;99.90;;;;;;5016424;28;20164;-79
2022/05/12 00:56:24;;;;;;;19.65;6.75;;;15.60;99.90;;;;;;5034212;28;20628;-80
2022/05/12 00:59:00;;;;;;;13.10;6.32;;;15.60;99.90;;;;;;5034118;28;20172;-81
2022/05/12 01:01:27;;;;;;;10.98;6.43;;;15.60;99.90;;;;;;5015895;28;20172;-79
2022/05/12 01:03:56;;;;;;;13.13;7.30;;;15.60;99.90;;;;;;5016076;28;20637;-80
2022/05/12 01:06:22;;;;;;;10.65;6.53;;;15.70;99.90;;;;;;5015919;28;20223;-80
2022/05/12 01:08:47;;;;;;;8.43;6.65;;;15.80;99.90;;;;;;5033370;28;20196;-78
2022/05/12 01:11:17;;;;;;;7.60;5.78;;;15.70;99.90;;;;;;5033556;28;20740;-79
2022/05/12 01:13:46;;;;;;;10.00;7.18;;;15.60;99.90;;;;;;5033254;28;20172;-79
2022/05/12 01:16:39;;;;;;;13.60;6.57;;;15.60;99.90;;;;;;5033295;28;20247;-82
2022/05/12 01:19:07;;;;;;;15.32;6.25;;;15.60;99.90;;;;;;5033491;28;20210;-80
2022/05/12 01:21:34;;;;;;;11.38;7.07;;;15.70;99.90;;;;;;5033368;28;20651;-80
2022/05/12 01:24:00;;;;;;;13.48;7.35;;;15.80;99.90;;;;;;5033391;28;20214;-80
2022/05/12 01:26:27;;;;;;;14.48;6.82;;;15.90;99.90;;;;;;5032968;28;20191;-78
2022/05/12 01:28:53;;;;;;;10.20;6.45;;;16.00;99.90;;;;;;5033070;28;20533;-82
2022/05/12 01:31:22;;;;;;;16.73;6.97;;;15.90;99.90;;;;;;5032661;28;20226;-85
2022/05/12 01:33:47;;;;;;;13.02;6.45;;;16.00;99.90;;;;;;5015029;28;20195;-80
2022/05/12 01:36:13;;;;;;;11.75;7.00;;;16.00;99.90;;;;;;5015381;28;20196;-79
2022/05/12 01:38:39;;;;;;;11.32;6.32;;;15.90;99.90;;;;;;5033380;28;20495;-79
2022/05/12 01:41:05;;;;;;;16.00;7.40;;;16.00;99.90;;;;;;5015322;28;20533;-80
2022/05/12 01:43:30;;;;;;;11.20;5.30;;;15.90;99.90;;;;;;5032830;28;20499;-79
2022/05/12 01:45:59;;;;;;;16.33;5.82;;;15.90;99.90;;;;;;5032737;28;20186;-79
2022/05/12 01:48:25;;;;;;;15.20;5.80;;;15.80;99.90;;;;;;5032764;28;20214;-79
2022/05/12 01:50:52;;;;;;;7.75;5.30;;;15.80;99.90;;;;;;5032711;28;20168;-79
2022/05/12 01:53:18;;;;;;;10.95;5.13;;;15.80;99.90;;;;;;5014803;28;20159;-78
2022/05/12 01:55:47;;;;;;;19.52;5.82;;;15.80;99.90;;;;;;5032465;28;20210;-79
2022/05/12 01:58:13;;;;;;;12.40;5.22;;;16.00;99.90;;;;;;5032433;28;20290;-79
2022/05/12 02:00:39;;;;;;;15.45;4.90;;;16.10;99.90;;;;;;5032270;28;20168;-79
2022/05/12 02:03:04;;;;;;;18.45;4.63;;;16.20;99.90;;;;;;5032655;28;20230;-79
2022/05/12 02:05:32;;;;;;;8.07;5.20;;;16.20;99.90;;;;;;5033667;28;20164;-79
2022/05/12 02:07:58;;;;;;;13.80;5.35;;;16.20;99.90;;;;;;5036480;28;20180;-79
2022/05/12 02:10:27;;;;;;;7.57;5.00;;;16.20;99.90;;;;;;5049903;28;20223;-78
2022/05/12 02:12:53;;;;;;;7.30;4.28;;;16.20;99.90;;;;;;5045010;28;20226;-78
2022/05/12 02:15:19;;;;;;;12.93;4.57;;;16.10;99.90;;;;;;5032255;28;20164;-79
2022/05/12 02:17:45;;;;;;;9.90;4.47;;;15.80;99.90;;;;;;5032383;28;20204;-79
2022/05/12 02:20:13;;;;;;;21.52;4.97;;;15.80;99.90;;;;;;5031834;28;20529;-78
2022/05/12 02:22:39;;;;;;;12.52;4.70;;;15.80;99.90;;;;;;5031839;28;20175;-78
2022/05/12 02:25:06;;;;;;;9.85;3.85;;;15.70;99.90;;;;;;5031910;28;20250;-79
2022/05/12 02:27:32;;;;;;;13.18;4.38;;;15.60;99.90;;;;;;5013694;28;20579;-78
2022/05/12 02:29:58;;;;;;;12.38;3.97;;;15.50;99.90;;;;;;5032079;28;20520;-78
2022/05/12 02:32:27;;;;;;;20.90;4.00;;;15.40;99.90;;;;;;5032057;28;20190;-78
2022/05/12 02:34:53;;;;;;;9.25;3.03;;;15.30;99.90;;;;;;5031913;28;20226;-79
2022/05/12 02:37:19;;;;;;;14.50;4.50;;;15.50;99.90;;;;;;5032181;28;20208;-78
2022/05/12 02:39:45;;;;;;;10.15;3.15;;;15.60;99.90;;;;;;5032053;28;20196;-78
2022/05/12 02:42:11;;;;;;;14.02;3.58;;;15.40;99.90;;;;;;5032241;28;20562;-79
2022/05/12 02:44:37;;;;;;;8.80;3.15;;;15.30;99.90;;;;;;5032137;28;20221;-79
2022/05/12 02:47:07;;;;;;;15.43;4.07;;;15.40;99.90;;;;;;5032122;28;20179;-79
2022/05/12 02:49:33;;;;;;;11.85;4.68;;;15.50;99.90;;;;;;5031912;28;20168;-79
2022/05/12 02:51:59;;;;;;;20.02;3.92;;;15.60;99.90;;;;;;5014286;28;20159;-78
2022/05/12 02:54:24;;;;;;;12.10;3.40;;;15.50;99.90;;;;;;5031931;28;20171;-78
2022/05/12 02:56:52;;;;;;;11.88;3.53;;;15.50;99.90;;;;;;5031657;28;20301;-79
2022/05/12 02:59:18;;;;;;;15.75;4.07;;;15.60;99.90;;;;;;5014245;28;20179;-78
2022/05/12 03:01:44;;;;;;;13.18;3.42;;;15.50;99.90;;;;;;5032098;28;20164;-78
2022/05/12 03:04:09;;;;;;;11.45;3.33;;;15.40;99.90;;;;;;5031631;28;20187;-79
2022/05/12 03:06:35;;;;;;;13.93;3.47;;;15.40;99.90;;;;;;5031931;28;20188;-78
2022/05/12 03:09:01;;;;;;;24.63;4.57;;;15.40;99.90;;;;;;5032211;28;20175;-78
2022/05/12 03:11:28;;;;;;;19.73;4.15;;;15.30;99.90;;;;;;5031698;28;20629;-79
2022/05/12 03:13:54;;;;;;;7.07;3.47;;;15.20;99.90;;;;;;5014131;28;20226;-78
2022/05/12 03:16:20;;;;;;;11.23;3.63;;;15.10;99.90;;;;;;5031439;28;20184;-78
2022/05/12 03:18:47;;;;;;;10.50;3.97;;;15.10;99.90;;;;;;5031323;28;20175;-79
2022/05/12 03:21:14;;;;;;;9.90;3.70;;;15.10;99.90;;;;;;5031633;28;20168;-79
2022/05/12 03:23:40;;;;;;;9.20;3.58;;;15.20;99.90;;;;;;5013514;28;20167;-78
2022/05/12 03:26:06;;;;;;;9.57;3.13;;;15.00;99.90;;;;;;5032165;28;20291;-78
2022/05/12 03:28:33;;;;;;;10.05;3.58;;;15.20;99.90;;;;;;5031505;28;20204;-78
2022/05/12 03:30:59;;;;;;;11.70;2.63;;;15.00;99.90;;;;;;5032655;28;20202;-79
2022/05/12 03:33:25;;;;;;;10.52;3.38;;;14.80;99.90;;;;;;5035004;28;20175;-79
2022/05/12 03:35:51;;;;;;;24.80;4.45;;;14.80;99.90;;;;;;5034927;28;20645;-79
2022/05/12 03:38:18;;;;;;;10.00;2.83;;;14.90;99.90;;;;;;5034830;28;20616;-79
2022/05/12 03:40:44;;;;;;;11.15;3.53;;;14.90;99.90;;;;;;5034773;28;20246;-78
2022/05/12 03:43:10;;;;;;;9.35;3.40;;;14.90;99.90;;;;;;5017049;28;20632;-78
2022/05/12 03:45:36;;;;;;;14.48;3.78;;;14.80;99.90;;;;;;5034690;28;20175;-79
2022/05/12 03:48:02;;;;;;;11.05;4.00;;;14.60;99.90;;;;;;5034523;28;20254;-78
2022/05/12 03:50:28;;;;;;;7.68;3.63;;;14.70;99.90;;;;;;5034495;28;20168;-78
2022/05/12 03:52:55;;;;;;;13.55;4.00;;;14.60;99.90;;;;;;5035685;28;20180;-78
2022/05/12 03:55:26;;;;;;;18.25;4.07;;;14.60;99.90;;;;;;5034775;28;20175;-79
2022/05/12 03:57:55;;;;;;;14.15;4.38;;;14.60;99.90;;;;;;5034683;28;20207;-78
2022/05/12 04:00:27;;;;;;;11.73;3.75;;;14.70;99.90;;;;;;5016921;28;20548;-78
2022/05/12 04:02:53;;;;;;;11.00;3.10;;;14.60;99.90;;;;;;5017030;28;20598;-78
2022/05/12 04:05:20;;;;;;;12.60;2.95;;;14.60;99.90;;;;;;5016829;28;20172;-79
2022/05/12 04:07:46;;;;;;;16.13;3.75;;;14.60;99.90;;;;;;5017021;28;20164;-79
2022/05/12 04:10:14;;;;;;;10.10;3.40;;;14.70;99.90;;;;;;5034524;28;20168;-79
2022/05/12 04:12:40;;;;;;;18.75;3.80;;;14.60;99.90;;;;;;5034203;28;20525;-80
2022/05/12 04:15:08;;;;;;;15.27;3.85;;;14.70;99.90;;;;;;5034077;28;20168;-81
2022/05/12 04:17:34;;;;;;;12.20;4.18;;;14.80;99.90;;;;;;5016424;28;20224;-79
2022/05/12 04:20:06;;;;;;;17.15;3.50;;;14.80;99.90;;;;;;5034192;28;20164;-78
2022/05/12 04:22:33;;;;;;;9.10;3.35;;;14.80;99.90;;;;;;5034572;28;20164;-79
2022/05/12 04:24:59;;;;;;;17.60;3.90;;;14.80;99.90;;;;;;5034279;28;20239;-79
2022/05/12 04:27:25;;;;;;;11.65;3.35;;;14.80;99.90;;;;;;5034245;28;20872;-78
2022/05/12 04:29:51;;;;;;;8.18;3.47;;;14.70;99.90;;;;;;5034335;28;20168;-78
2022/05/12 04:32:17;;;;;;;10.25;3.90;;;14.70;99.90;;;;;;5033787;28;20179;-78
2022/05/12 04:37:32;;;;;;;10.50;3.42;;;15.00;99.90;;;;;;5033594;28;20227;-78
2022/05/12 04:40:13;;;;;;;7.03;4.45;;;15.20;99.90;;;;;;5036683;22;20311;-78
2022/05/12 04:42:39;;;;;;;14.52;3.65;;;15.30;99.90;;;;;;5014200;28;20168;-79
2022/05/12 04:45:07;;;;;;;6.88;3.75;;;15.30;99.90;;;;;;5016801;28;20164;-79
2022/05/12 04:47:34;;;;;;;11.00;4.30;;;15.40;99.90;;;;;;5021361;28;20203;-78
2022/05/12 04:50:01;;;;;;;45.35;5.25;;;15.50;99.90;;;;;;5039498;28;20168;-79
2022/05/12 04:52:27;;;;;;;11.13;3.45;;;15.40;99.90;;;;;;5027487;28;20288;-79
2022/05/12 04:54:54;;;;;;;7.80;3.28;;;15.40;99.90;;;;;;5014176;28;20172;-79
2022/05/12 04:57:20;;;;;;;14.18;4.57;;;15.20;99.90;;;;;;5014016;28;20208;-78
2022/05/12 04:59:46;;;;;;;14.77;4.72;;;15.40;99.90;;;;;;5014131;28;20168;-78
2022/05/12 05:02:12;;;;;;;13.25;3.97;;;15.30;99.90;;;;;;5013886;28;20168;-78
2022/05/12 05:04:38;;;;;;;14.90;4.43;;;15.20;99.90;;;;;;5013900;28;20176;-79
2022/05/12 05:07:03;;;;;;;20.38;5.45;;;15.30;99.90;;;;;;4996207;28;20195;-78
2022/05/12 05:09:29;;;;;;;18.85;5.18;;;15.20;99.90;;;;;;5014270;28;20588;-78
2022/05/12 05:11:55;;;;;;;13.43;4.63;;;15.00;99.90;;;;;;5014065;28;20219;-78
2022/05/12 05:14:20;;;;;;;11.00;4.35;;;14.90;99.90;;;;;;4996589;28;20168;-78
2022/05/12 05:16:47;;;;;;;25.25;5.03;;;14.80;99.90;;;;;;5014184;28;20701;-79
2022/05/12 05:19:12;;;;;;;34.08;5.80;;;14.60;99.90;;;;;;5014038;28;20533;-78
2022/05/12 05:21:38;;;;;;;16.25;4.85;;;14.90;99.90;;;;;;5013727;28;20168;-78
2022/05/12 05:24:04;;;;;;;13.25;4.28;;;14.90;99.90;;;;;;5013827;28;20251;-78
2022/05/12 05:26:30;;;;;;;15.52;5.28;;;15.10;99.90;;;;;;5013631;28;20238;-78
2022/05/12 05:28:56;;;;;;;16.92;4.22;;;15.20;99.90;;;;;;5013504;28;20164;-78
2022/05/12 05:31:22;;;;;;;17.75;4.65;;;15.30;99.90;;;;;;5013551;28;20168;-78
2022/05/12 05:33:49;;;;;;;13.43;4.57;;;15.40;99.90;;;;;;5013442;28;20577;-78
2022/05/12 05:36:14;;;;;;;7.50;4.47;;;15.30;99.90;;;;;;5013346;28;20189;-78
2022/05/12 05:38:40;;;;;;;10.00;4.80;;;15.40;99.90;;;;;;5013651;28;20204;-79
2022/05/12 05:41:07;;;;;;;7.40;4.35;;;15.60;99.90;;;;;;4994233;28;20177;-81
2022/05/12 05:43:33;;;;;;;14.45;5.95;;;15.70;99.90;;;;;;4992792;28;20175;-86
2022/05/12 05:45:59;;;;;;;18.90;5.75;;;15.70;99.90;;;;;;5006742;28;20622;-85
2022/05/12 05:48:25;;;;;;;14.60;4.78;;;15.60;99.90;;;;;;5019270;28;20175;-80
2022/05/12 05:53:38;;;;;;;11.20;4.53;;;15.70;99.90;;;;;;5013325;28;20210;-81
2022/05/12 05:56:06;;;;;;;18.60;5.40;;;15.60;99.90;;;;;;5012785;28;20196;-80
2022/05/12 05:58:33;;;;;;;12.95;5.32;;;15.70;99.90;;;;;;4995123;28;20208;-80
2022/05/12 06:00:59;;;;;;;14.43;5.13;;;15.90;99.90;;;;;;5013037;28;20192;-81
2022/05/12 06:03:25;;;;;;;16.95;5.65;;;15.80;99.90;;;;;;4995426;28;20188;-79
2022/05/12 06:05:51;;;;;;;11.57;5.07;;;16.00;99.90;;;;;;4995642;28;20288;-80
2022/05/12 06:08:20;;;;;;;12.18;5.25;;;16.10;99.90;;;;;;5012901;28;20164;-81
2022/05/12 06:10:46;;;;;;;14.40;5.55;;;16.30;99.90;;;;;;4994992;28;20577;-80
2022/05/12 06:13:13;;;;;;;34.97;24.95;;;16.10;99.90;;;;;;4995284;28;20161;-80
2022/05/12 06:15:39;;;;;;;19.35;6.30;;;16.10;99.90;;;;;;5012471;28;20180;-81
2022/05/12 06:18:10;;;;;;;11.25;5.15;;;16.20;99.90;;;;;;4995006;28;20554;-83
2022/05/12 06:20:37;;;;;;;13.90;4.93;;;16.30;99.90;;;;;;5013422;28;20177;-81
2022/05/12 06:23:02;;;;;;;32.03;13.80;;;16.30;99.90;;;;;;4995230;28;20263;-82
2022/05/12 06:25:28;;;;;;;21.75;10.63;;;16.40;99.90;;;;;;5012945;28;20253;-81
2022/05/12 06:27:54;;;;;;;23.70;8.95;;;16.40;99.90;;;;;;4995114;28;20168;-82
2022/05/12 06:30:20;;;;;;;14.25;5.85;;;16.60;99.90;;;;;;5012390;28;20625;-83
2022/05/12 06:32:46;;;;;;;15.27;5.30;;;16.70;99.90;;;;;;5013357;28;20260;-78
2022/05/12 06:35:16;;;;;;;21.02;5.95;;;16.90;99.90;;;;;;5012334;28;20176;-78
2022/05/12 06:37:42;;;;;;;14.80;5.15;;;16.60;99.90;;;;;;5012073;28;20215;-78
2022/05/12 06:40:09;;;;;;;19.23;5.03;;;16.60;99.90;;;;;;5012286;28;20191;-78
2022/05/12 06:42:35;;;;;;;15.73;5.25;;;16.60;99.90;;;;;;5012170;28;20161;-78
2022/05/12 06:45:01;;;;;;;15.63;6.25;;;16.80;99.90;;;;;;5012054;28;20191;-78
2022/05/12 06:47:28;;;;;;;14.50;5.15;;;16.80;99.90;;;;;;5012164;28;20176;-79
2022/05/12 06:49:54;;;;;;;19.80;5.88;;;16.90;99.90;;;;;;5012680;28;20244;-78
2022/05/12 06:52:20;;;;;;;12.35;5.47;;;16.70;99.90;;;;;;4994881;28;20168;-78
2022/05/12 06:54:46;;;;;;;17.15;5.55;;;16.50;99.90;;;;;;5012286;28;20165;-78
2022/05/12 06:57:20;;;;;;;15.98;5.47;;;16.70;99.90;;;;;;5012505;28;20215;-78
2022/05/12 06:59:45;;;;;;;13.63;5.22;;;17.00;99.90;;;;;;5011830;28;20173;-80
2022/05/12 07:02:11;;;;;;;9.23;5.63;;;16.80;99.90;;;;;;5012272;28;20176;-77
2022/05/12 07:04:36;;;;;;;6.03;4.35;;;16.50;99.90;;;;;;4995136;28;20175;-79
2022/05/12 07:07:02;;;;;;;19.58;5.20;;;17.10;99.90;;;;;;5015963;28;20676;-86
2022/05/12 07:09:29;;;;;;;11.73;5.38;;;18.00;99.90;;;;;;5016010;28;20227;-85
2022/05/12 07:11:55;;;;;;;9.60;4.65;;;18.80;99.90;;;;;;5016303;28;20168;-79
2022/05/12 07:14:21;;;;;;;10.50;5.43;;;19.60;99.90;;;;;;4998159;28;20168;-79
2022/05/12 07:16:47;;;;;;;18.38;5.78;;;20.10;99.90;;;;;;5015998;28;20239;-77
2022/05/12 07:19:15;;;;;;;10.43;6.15;;;20.60;99.90;;;;;;5017120;28;20263;-79
2022/05/12 07:27:16;;;;;;;13.90;4.57;;;22.20;99.90;;;;;;5016259;28;20744;-83
2022/05/12 07:29:42;;;;;;;17.30;5.05;;;23.00;99.90;;;;;;5015513;28;20173;-77
2022/05/12 07:32:08;;;;;;;25.58;5.95;;;23.40;99.90;;;;;;5015663;28;20262;-77
2022/05/12 07:34:34;;;;;;;9.27;4.38;;;23.40;99.90;;;;;;5015630;28;20588;-78
2022/05/12 07:37:00;;;;;;;10.10;4.57;;;23.10;99.90;;;;;;5015516;28;20219;-77
2022/05/12 07:39:29;;;;;;;9.48;4.38;;;21.90;99.90;;;;;;5015394;28;20192;-78
2022/05/12 07:42:00;;;;;;;14.13;5.50;;;21.20;99.90;;;;;;5015360;28;20169;-78
2022/05/12 07:44:32;;;;;;;8.60;5.60;;;20.90;99.90;;;;;;5015614;28;20357;-79
2022/05/12 07:47:01;;;;;;;9.55;5.03;;;20.20;99.90;;;;;;5015709;28;20275;-80
2022/05/12 07:49:31;;;;;;;10.05;5.15;;;19.90;99.90;;;;;;5015761;28;20173;-81
2022/05/12 07:51:57;;;;;;;13.70;5.32;;;19.80;99.90;;;;;;4998675;28;20254;-79
2022/05/12 07:54:22;;;;;;;13.23;5.32;;;19.80;99.90;;;;;;5015320;28;20229;-79
2022/05/12 07:56:48;;;;;;;9.55;5.05;;;19.70;99.90;;;;;;5015126;28;20273;-79
2022/05/12 07:59:14;;;;;;;6.53;5.00;;;19.30;99.90;;;;;;5015635;28;20173;-78
2022/05/12 08:01:39;;;;;;;16.40;5.88;;;19.30;99.90;;;;;;5016265;28;20156;-84
2022/05/12 08:04:05;;;;;;;25.95;5.60;;;19.00;99.90;;;;;;5017301;28;20172;-82
2022/05/12 08:06:32;;;;;;;8.35;5.53;;;19.10;99.90;;;;;;5016148;28;20215;-82
2022/05/12 08:08:57;;;;;;;16.85;7.50;;;18.80;99.90;;;;;;4999251;28;20168;-83
2022/05/12 08:11:24;;;;;;;15.25;6.68;;;18.60;99.90;;;;;;4998652;28;20171;-82
2022/05/12 08:13:50;;;;;;;24.50;6.75;;;18.70;99.90;;;;;;4998613;28;20182;-82
2022/05/12 08:16:18;;;;;;;9.25;5.80;;;18.60;99.90;;;;;;5015891;28;20188;-81
2022/05/12 08:18:45;;;;;;;14.48;5.57;;;18.80;99.90;;;;;;5015639;28;20208;-85
2022/05/12 08:21:13;;;;;;;34.78;6.63;;;19.00;99.90;;;;;;4999681;28;20164;-86
2022/05/12 08:23:40;;;;;;;23.05;6.93;;;18.90;99.90;;;;;;5002726;28;20697;-85
2022/05/12 08:26:06;;;;;;;19.42;7.43;;;19.00;99.90;;;;;;5016490;28;20197;-85
2022/05/12 08:28:32;;;;;;;13.85;5.72;;;19.30;99.90;;;;;;5015367;28;20191;-83
2022/05/12 08:30:58;;;;;;;16.08;6.43;;;19.40;99.90;;;;;;5018152;28;20179;-84
2022/05/12 08:33:24;;;;;;;9.10;4.32;;;19.60;99.90;;;;;;5046458;28;20174;-82
2022/05/12 08:35:50;;;;;;;10.90;5.18;;;19.30;99.90;;;;;;5044317;28;20194;-83
2022/05/12 08:38:19;;;;;;;20.13;6.20;;;19.30;99.90;;;;;;4992600;28;20201;-82
2022/05/12 08:41:04;;;;;;;13.27;6.97;;;19.30;99.90;;;;;;4997509;28;20241;-85
2022/05/12 08:43:45;;;;;;;18.83;6.25;;;19.60;99.90;;;;;;4999062;28;20192;-86
2022/05/12 08:46:28;;;;;;;19.30;7.13;;;19.60;99.90;;;;;;4991688;28;20285;-84
2022/05/12 08:49:10;;;;;;;15.07;7.65;;;20.00;99.90;;;;;;5001241;28;20240;-84
2022/05/12 08:51:36;;;;;;;22.85;7.50;;;20.00;99.90;;;;;;5003478;28;20177;-86
2022/05/12 08:54:07;;;;;;;20.88;7.63;;;19.70;99.90;;;;;;5003855;28;20173;-86
2022/05/12 08:56:35;;;;;;;12.18;6.55;;;19.70;99.90;;;;;;5002508;28;20192;-84
2022/05/12 08:59:01;;;;;;;10.93;6.15;;;19.80;99.90;;;;;;4999794;28;20179;-85
2022/05/12 09:01:36;;;;;;;25.35;6.20;;;20.00;99.90;;;;;;5002347;28;20230;-86
2022/05/12 09:04:40;;;;;;;14.93;5.30;;;20.10;99.90;;;;;;5002804;28;20168;-83
2022/05/12 09:07:13;;;;;;;10.50;4.88;;;19.90;99.90;;;;;;5013536;28;20278;-85
2022/05/12 09:10:18;;;;;;;17.77;5.78;;;19.90;99.90;;;;;;5022143;28;20164;-83
2022/05/12 09:13:11;;;;;;;11.30;5.45;;;20.00;99.90;;;;;;5009674;28;20234;-85
2022/05/12 09:15:49;;;;;;;15.20;7.63;;;20.10;99.90;;;;;;5020845;28;20184;-85
2022/05/12 09:18:27;;;;;;;17.60;6.15;;;20.40;99.90;;;;;;4984804;28;20295;-84
2022/05/12 09:20:53;;;;;;;13.60;4.80;;;20.50;99.90;;;;;;4990363;28;20284;-84
2022/05/12 09:23:19;;;;;;;13.25;5.53;;;20.50;99.90;;;;;;5020785;28;20176;-84
2022/05/12 09:25:48;;;;;;;7.95;4.10;;;20.70;99.90;;;;;;5026318;28;20675;-84
2022/05/12 09:28:27;;;;;;;11.77;5.47;;;20.70;99.90;;;;;;5005254;28;20165;-86
2022/05/12 09:30:55;;;;;;;24.45;6.68;;;20.60;99.90;;;;;;5010757;28;20622;-85
2022/05/12 09:33:34;;;;;;;9.52;5.47;;;20.70;99.90;;;;;;5014271;28;20180;-86
2022/05/12 09:36:05;;;;;;;15.27;5.78;;;20.50;99.90;;;;;;5019671;28;20199;-85
2022/05/12 09:38:30;;;;;;;9.40;6.57;;;20.80;99.90;;;;;;5032380;28;20723;-84
2022/05/12 09:40:57;;;;;;;18.90;6.82;;;20.50;99.90;;;;;;5031805;28;20197;-85
2022/05/12 09:43:31;;;;;;;17.50;4.63;;;20.70;99.90;;;;;;5036016;28;20203;-85
2022/05/12 09:46:07;;;;;;;8.80;4.35;;;20.90;99.90;;;;;;5031751;28;20723;-85
2022/05/12 09:48:35;;;;;;;10.32;6.30;;;21.40;99.90;;;;;;5002546;28;20164;-86
2022/05/12 09:51:29;;;;;;;8.00;5.00;;;21.50;99.90;;;;;;5018964;28;20259;-84
2022/05/12 09:54:28;;;;;;;14.77;7.32;;;21.40;99.90;;;;;;4999885;28;20181;-85
2022/05/12 09:57:11;;;;;;;8.07;5.50;;;21.50;99.90;;;;;;4990769;28;20212;-88
2022/05/12 09:59:38;;;;;;;14.65;6.03;;;21.60;99.90;;;;;;4977895;28;20177;-85
2022/05/12 10:08:28;;;;;;;17.63;7.93;;;21.50;99.90;;;;;;4994115;28;20192;-84
2022/05/12 10:11:02;;;;;;;11.77;6.35;;;22.00;99.90;;;;;;4993494;28;20195;-85
2022/05/12 10:13:28;;;;;;;6.88;5.70;;;22.00;99.90;;;;;;5006168;28;20776;-86
2022/05/12 10:15:55;;;;;;;11.70;5.72;;;22.00;99.90;;;;;;4996024;28;20254;-85
2022/05/12 10:18:34;;;;;;;21.05;7.40;;;22.10;99.90;;;;;;4995934;28;20208;-84
2022/05/12 10:21:26;;;;;;;12.82;8.23;;;22.00;99.90;;;;;;4995895;28;20199;-84
2022/05/12 10:24:17;;;;;;;14.23;7.22;;;22.30;99.90;;;;;;4987789;28;20239;-87
2022/05/12 10:26:57;;;;;;;16.35;6.38;;;22.50;99.90;;;;;;5013693;28;20547;-86
2022/05/12 10:30:10;;;;;;;13.13;7.25;;;22.70;99.90;;;;;;4996540;28;20255;-86
2022/05/12 10:33:01;;;;;;;10.63;6.05;;;22.80;99.90;;;;;;4980563;28;20243;-86
2022/05/12 10:35:47;;;;;;;17.98;5.95;;;22.60;99.90;;;;;;4993867;28;20172;-85
2022/05/12 10:38:26;;;;;;;9.10;6.32;;;22.80;99.90;;;;;;4975799;28;20204;-85
2022/05/12 10:41:02;;;;;;;11.43;6.10;;;22.90;99.90;;;;;;4975889;28;20185;-85
2022/05/12 10:44:08;;;;;;;15.18;5.57;;;22.80;99.90;;;;;;4976374;28;20176;-86
2022/05/12 10:46:56;;;;;;;8.02;4.20;;;22.80;99.90;;;;;;4976375;28;20197;-85
2022/05/12 10:49:27;;;;;;;7.35;3.88;;;22.90;99.90;;;;;;4990396;28;20187;-85
2022/05/12 10:51:55;;;;;;;10.45;4.05;;;22.70;99.90;;;;;;5014981;28;20198;-84
2022/05/12 10:54:33;;;;;;;4.97;2.88;;;22.70;99.90;;;;;;4989871;28;20676;-85
2022/05/12 10:57:08;;;;;;;9.43;3.38;;;22.60;99.90;;;;;;4976692;28;20200;-78
2022/05/12 10:59:49;;;;;;;10.98;4.07;;;22.70;99.90;;;;;;4994496;28;20255;-80
2022/05/12 11:02:22;;;;;;;6.57;3.92;;;23.20;99.90;;;;;;4993945;28;20176;-85
2022/05/12 11:05:06;;;;;;;5.50;3.08;;;23.30;99.90;;;;;;4993978;28;20174;-78
2022/05/12 11:07:42;;;;;;;13.43;2.33;;;23.20;99.90;;;;;;4994292;28;20292;-79
2022/05/12 11:10:42;;;;;;;20.67;3.63;;;23.40;99.90;;;;;;4995135;28;20166;-78
2022/05/12 11:13:13;;;;;;;26.95;3.40;;;23.20;99.90;;;;;;4977545;28;20173;-83
2022/05/12 11:16:01;;;;;;;4.80;2.15;;;23.20;99.90;;;;;;4993548;28;20213;-79
2022/05/12 11:18:41;;;;;;;13.93;2.42;;;23.30;99.90;;;;;;4993358;28;20200;-79
2022/05/12 11:21:17;;;;;;;10.52;2.00;;;23.60;99.90;;;;;;4993108;28;20166;-79
2022/05/12 11:24:04;;;;;;;4.20;1.70;;;23.60;99.90;;;;;;4993177;28;20253;-79
2022/05/12 11:27:08;;;;;;;11.07;3.50;;;23.30;99.60;;;;;;4975307;28;20197;-79
2022/05/12 11:30:13;;;;;;;15.85;2.80;;;23.00;99.90;;;;;;4970159;28;20195;-78
2022/05/12 11:32:49;;;;;;;4.15;1.70;;;22.80;99.90;;;;;;4933743;29;20191;-79
2022/05/12 11:35:32;;;;;;;75.97;3.10;;;22.70;99.90;;;;;;4985096;28;20201;-81
2022/05/12 11:38:04;;;;;;;10.35;2.78;;;23.10;99.90;;;;;;4996139;28;20793;-79
2022/05/12 11:40:48;;;;;;;1.83;1.40;;;23.20;99.90;;;;;;4992629;28;20189;-79
2022/05/12 11:46:42;;;;;;;5.32;1.48;;;23.40;99.40;;;;;;4992922;28;20304;-80
2022/05/12 11:49:45;;;;;;;4.03;2.33;;;23.50;98.60;;;;;;4992442;28;20181;-78
2022/05/12 11:52:25;;;;;;;7.00;1.77;;;23.50;98.30;;;;;;4992816;28;20172;-79
2022/05/12 11:55:18;;;;;;;3.70;1.75;;;23.60;99.30;;;;;;4995555;28;20172;-80
2022/05/12 11:57:55;;;;;;;8.05;2.20;;;23.40;99.00;;;;;;4979553;28;20311;-78
2022/05/12 12:00:35;;;;;;;13.20;1.58;;;23.60;98.10;;;;;;4996750;28;20626;-78
2022/05/12 12:03:19;;;;;;;6.45;1.80;;;23.70;97.30;;;;;;4996543;28;20184;-79
2022/05/12 12:05:48;;;;;;;4.43;1.38;;;23.50;97.50;;;;;;4996111;28;20243;-78
2022/05/12 12:08:32;;;;;;;16.52;2.80;;;23.50;97.70;;;;;;4996508;28;20241;-78
2022/05/12 12:11:13;;;;;;;5.75;2.25;;;23.70;97.50;;;;;;4996342;28;20169;-79
2022/05/12 12:13:41;;;;;;;5.97;1.33;;;23.80;97.40;;;;;;4996533;28;20262;-79
2022/05/12 12:16:16;;;;;;;7.05;1.58;;;23.70;97.50;;;;;;4996088;28;20185;-80
2022/05/12 12:18:42;;;;;;;5.35;1.73;;;23.40;97.80;;;;;;4996397;28;20292;-78
2022/05/12 12:21:37;;;;;;;45.67;3.50;;;23.30;98.10;;;;;;4978831;28;20172;-81
2022/05/12 12:24:13;;;;;;;15.13;1.67;;;23.70;97.60;;;;;;4989182;28;20189;-79
2022/05/12 12:26:41;;;;;;;213.23;16.00;;;24.10;97.70;;;;;;4996008;28;20199;-79
2022/05/12 12:29:09;;;;;;;12.70;1.92;;;24.50;97.20;;;;;;4979463;28;20169;-79
2022/05/12 12:31:43;;;;;;;9.40;1.77;;;24.50;96.50;;;;;;4996143;28;20239;-78
2022/05/12 12:34:21;;;;;;;7.00;1.83;;;23.80;98.00;;;;;;4996487;28;20433;-78
2022/05/12 12:36:50;;;;;;;3.38;1.10;;;23.80;97.80;;;;;;4996011;28;20661;-78
2022/05/12 12:39:38;;;;;;;5.38;1.73;;;23.60;97.60;;;;;;4978682;28;20292;-78
2022/05/12 12:42:15;;;;;;;1.42;1.00;;;23.60;97.40;;;;;;4996390;28;20253;-78
2022/05/12 12:44:43;;;;;;;6.60;1.50;;;23.60;97.20;;;;;;4998450;28;20169;-78
2022/05/12 12:47:35;;;;;;;9.15;1.58;;;23.60;97.20;;;;;;5009162;28;20220;-77
2022/05/12 12:50:22;;;;;;;5.05;1.60;;;23.80;96.50;;;;;;5008839;28;20173;-78
2022/05/12 12:52:48;;;;;;;13.98;1.77;;;23.80;96.50;;;;;;5008511;28;20170;-78
2022/05/12 12:58:32;;;;;;;24.65;4.57;;;23.60;96.50;;;;;;5000894;28;20288;-80
2022/05/12 13:01:20;;;;;;;12.77;1.60;;;23.60;96.30;;;;;;4995538;28;20165;-80
2022/05/12 13:03:55;;;;;;;10.02;1.67;;;23.80;96.60;;;;;;4994706;28;20622;-82
2022/05/12 13:06:36;;;;;;;3.28;1.00;;;23.70;97.20;;;;;;4977550;28;20557;-81
2022/05/12 13:09:14;;;;;;;4.63;1.60;;;23.90;96.60;;;;;;4976988;28;20173;-82
2022/05/12 13:11:41;;;;;;;3.95;1.52;;;23.60;95.80;;;;;;4977122;28;20177;-83
2022/05/12 13:14:11;;;;;;;7.70;1.25;;;23.70;96.70;;;;;;4977427;28;20255;-81
2022/05/12 13:16:40;;;;;;;4.13;1.20;;;23.60;96.50;;;;;;4977176;28;20219;-82
2022/05/12 13:19:08;;;;;;;7.28;1.38;;;23.70;96.50;;;;;;4994553;28;20594;-81
2022/05/12 13:21:42;;;;;;;6.05;1.50;;;23.40;96.00;;;;;;4995154;28;20223;-81
2022/05/12 13:24:15;;;;;;;3.90;1.38;;;23.50;96.40;;;;;;4994284;28;20529;-80